sensor_id;sensor_type;location;lat;lon;timestamp;pressure;altitude;pressure_sealevel;temperature;humidity
34328;BME280;20588;48.840;10.064;2022-09-12T00:02:00;96673.06;;;9.66;100.00
34328;BME280;20588;48.840;10.064;2022-09-12T00:04:26;96669.31;;;9.62;100.00
34328;BME280;20588;48.840;10.064;2022-09-12T00:06:53;96667.16;;;9.59;100.00
34328;BME280;20588;48.840;10.064;2022-09-12T00:09:19;96671.50;;;9.58;100.00
34328;BME280;20588;48.840;10.064;2022-09-12T00:11:45;96678.59;;;9.56;100.00
34328;BME280;20588;48.840;10.064;2022-09-12T00:14:17;96674.06;;;9.52;100.00
34328;BME280;20588;48.840;10.064;2022-09-12T00:16:44;96664.56;;;9.46;100.00
34328;BME280;20588;48.840;10.064;2022-09-12T00:19:10;96667.53;;;9.43;100.00
34328;BME280;20588;48.840;10.064;2022-09-12T00:21:38;96673.88;;;9.40;100.00
34328;BME280;20588;48.840;10.064;2022-09-12T00:24:05;96671.91;;;9.36;100.00
34328;BME280;20588;48.840;10.064;2022-09-12T00:26:32;96669.72;;;9.33;100.00
34328;BME280;20588;48.840;10.064;2022-09-12T00:28:58;96673.47;;;9.30;100.00
34328;BME280;20588;48.840;10.064;2022-09-12T00:31:25;96661.81;;;9.28;100.00
34328;BME280;20588;48.840;10.064;2022-09-12T00:33:54;96666.56;;;9.24;100.00
34328;BME280;20588;48.840;10.064;2022-09-12T00:36:22;96659.25;;;9.21;100.00
34328;BME280;20588;48.840;10.064;2022-09-12T00:38:49;96664.56;;;9.19;100.00
34328;BME280;20588;48.840;10.064;2022-09-12T00:41:25;96657.06;;;9.18;100.00
34328;BME280;20588;48.840;10.064;2022-09-12T00:43:57;96654.13;;;9.14;100.00
34328;BME280;20588;48.840;10.064;2022-09-12T00:46:33;96644.06;;;9.06;100.00
34328;BME280;20588;48.840;10.064;2022-09-12T00:49:18;96651.34;;;9.03;100.00
34328;BME280;20588;48.840;10.064;2022-09-12T00:51:54;96651.34;;;9.03;100.00
34328;BME280;20588;48.840;10.064;2022-09-12T00:54:26;96648.00;;;9.02;100.00
34328;BME280;20588;48.840;10.064;2022-09-12T00:56:56;96638.13;;;8.99;100.00
34328;BME280;20588;48.840;10.064;2022-09-12T00:59:28;96635.75;;;8.98;100.00
34328;BME280;20588;48.840;10.064;2022-09-12T01:01:57;96631.03;;;8.95;100.00
34328;BME280;20588;48.840;10.064;2022-09-12T01:04:25;96642.44;;;8.92;100.00
34328;BME280;20588;48.840;10.064;2022-09-12T01:06:54;96640.28;;;8.89;100.00
34328;BME280;20588;48.840;10.064;2022-09-12T01:09:22;96639.69;;;8.87;100.00
34328;BME280;20588;48.840;10.064;2022-09-12T01:11:49;96637.34;;;8.86;100.00
34328;BME280;20588;48.840;10.064;2022-09-12T01:14:16;96633.97;;;8.85;100.00
34328;BME280;20588;48.840;10.064;2022-09-12T01:16:43;96618.78;;;8.84;100.00
34328;BME280;20588;48.840;10.064;2022-09-12T01:30:54;96612.25;;;8.75;100.00
34328;BME280;20588;48.840;10.064;2022-09-12T01:36:27;96606.72;;;8.71;100.00
34328;BME280;20588;48.840;10.064;2022-09-12T01:39:04;96599.81;;;8.72;100.00
34328;BME280;20588;48.840;10.064;2022-09-12T01:44:48;96612.84;;;8.70;100.00
34328;BME280;20588;48.840;10.064;2022-09-12T01:50:00;96602.16;;;8.67;100.00
34328;BME280;20588;48.840;10.064;2022-09-12T01:52:40;96600.00;;;8.64;100.00
34328;BME280;20588;48.840;10.064;2022-09-12T01:55:19;96600.59;;;8.59;100.00
34328;BME280;20588;48.840;10.064;2022-09-12T01:58:26;96600.56;;;8.53;100.00
34328;BME280;20588;48.840;10.064;2022-09-12T02:01:11;96598.19;;;8.51;100.00
34328;BME280;20588;48.840;10.064;2022-09-12T02:04:05;96601.75;;;8.50;100.00
34328;BME280;20588;48.840;10.064;2022-09-12T02:06:53;96595.25;;;8.48;100.00
34328;BME280;20588;48.840;10.064;2022-09-12T02:09:28;96594.44;;;8.47;100.00
34328;BME280;20588;48.840;10.064;2022-09-12T02:12:00;96591.28;;;8.45;100.00
34328;BME280;20588;48.840;10.064;2022-09-12T02:14:35;96587.94;;;8.45;100.00
34328;BME280;20588;48.840;10.064;2022-09-12T02:17:21;96595.84;;;8.43;100.00
34328;BME280;20588;48.840;10.064;2022-09-12T02:20:04;96590.91;;;8.42;100.00
34328;BME280;20588;48.840;10.064;2022-09-12T02:22:35;96586.94;;;8.39;100.00
34328;BME280;20588;48.840;10.064;2022-09-12T02:25:03;96589.88;;;8.36;100.00
34328;BME280;20588;48.840;10.064;2022-09-12T02:27:39;96586.13;;;8.32;100.00
34328;BME280;20588;48.840;10.064;2022-09-12T02:30:07;96588.69;;;8.32;100.00
34328;BME280;20588;48.840;10.064;2022-09-12T02:32:54;96583.97;;;8.29;100.00
34328;BME280;20588;48.840;10.064;2022-09-12T02:35:32;96587.31;;;8.30;100.00
34328;BME280;20588;48.840;10.064;2022-09-12T02:38:10;96589.09;;;8.29;100.00
34328;BME280;20588;48.840;10.064;2022-09-12T02:40:39;96588.28;;;8.29;100.00
34328;BME280;20588;48.840;10.064;2022-09-12T02:43:06;96583.97;;;8.29;100.00
34328;BME280;20588;48.840;10.064;2022-09-12T02:45:33;96583.34;;;8.27;100.00
34328;BME280;20588;48.840;10.064;2022-09-12T02:50:37;96585.16;;;8.27;100.00
34328;BME280;20588;48.840;10.064;2022-09-12T02:53:03;96584.53;;;8.25;100.00
34328;BME280;20588;48.840;10.064;2022-09-12T02:55:32;96575.28;;;8.24;100.00
34328;BME280;20588;48.840;10.064;2022-09-12T02:58:01;96580.59;;;8.22;100.00
34328;BME280;20588;48.840;10.064;2022-09-12T03:00:30;96573.47;;;8.18;100.00
34328;BME280;20588;48.840;10.064;2022-09-12T03:06:00;96567.50;;;8.11;100.00
34328;BME280;20588;48.840;10.064;2022-09-12T03:27:34;96571.81;;;7.97;100.00
34328;BME280;20588;48.840;10.064;2022-09-12T03:30:04;96562.13;;;7.93;100.00
34328;BME280;20588;48.840;10.064;2022-09-12T03:32:48;96564.88;;;7.91;100.00
34328;BME280;20588;48.840;10.064;2022-09-12T03:35:16;96575.94;;;7.92;100.00
34328;BME280;20588;48.840;10.064;2022-09-12T03:37:43;96567.84;;;7.88;100.00
34328;BME280;20588;48.840;10.064;2022-09-12T03:40:10;96575.28;;;7.83;100.00
34328;BME280;20588;48.840;10.064;2022-09-12T03:42:37;96573.09;;;7.80;100.00
34328;BME280;20588;48.840;10.064;2022-09-12T03:45:07;96566.41;;;7.79;100.00
34328;BME280;20588;48.840;10.064;2022-09-12T03:47:33;96560.50;;;7.79;100.00
34328;BME280;20588;48.840;10.064;2022-09-12T03:50:00;96563.06;;;7.79;100.00
34328;BME280;20588;48.840;10.064;2022-09-12T03:52:26;96565.22;;;7.75;100.00
34328;BME280;20588;48.840;10.064;2022-09-12T03:54:52;96566.81;;;7.76;100.00
34328;BME280;20588;48.840;10.064;2022-09-12T03:57:18;96569.56;;;7.75;100.00
34328;BME280;20588;48.840;10.064;2022-09-12T03:59:44;96574.66;;;7.75;100.00
34328;BME280;20588;48.840;10.064;2022-09-12T04:02:11;96575.84;;;7.72;100.00
34328;BME280;20588;48.840;10.064;2022-09-12T04:04:40;96570.91;;;7.71;100.00
34328;BME280;20588;48.840;10.064;2022-09-12T04:07:09;96570.31;;;7.69;100.00
34328;BME280;20588;48.840;10.064;2022-09-12T04:09:35;96577.38;;;7.67;100.00
34328;BME280;20588;48.840;10.064;2022-09-12T04:12:01;96570.88;;;7.64;100.00
34328;BME280;20588;48.840;10.064;2022-09-12T04:14:27;96573.81;;;7.61;100.00
34328;BME280;20588;48.840;10.064;2022-09-12T04:16:53;96571.44;;;7.60;100.00
34328;BME280;20588;48.840;10.064;2022-09-12T04:19:20;96567.31;;;7.59;100.00
34328;BME280;20588;48.840;10.064;2022-09-12T04:21:46;96571.03;;;7.56;100.00
34328;BME280;20588;48.840;10.064;2022-09-12T04:24:12;96565.53;;;7.53;100.00
34328;BME280;20588;48.840;10.064;2022-09-12T04:26:38;96564.09;;;7.50;100.00
34328;BME280;20588;48.840;10.064;2022-09-12T04:29:04;96566.09;;;7.48;100.00
34328;BME280;20588;48.840;10.064;2022-09-12T04:31:30;96571.41;;;7.47;100.00
34328;BME280;20588;48.840;10.064;2022-09-12T04:33:58;96567.06;;;7.47;100.00
34328;BME280;20588;48.840;10.064;2022-09-12T04:36:26;96568.03;;;7.46;100.00
34328;BME280;20588;48.840;10.064;2022-09-12T04:38:53;96566.47;;;7.45;100.00
34328;BME280;20588;48.840;10.064;2022-09-12T04:41:21;96566.66;;;7.44;100.00
34328;BME280;20588;48.840;10.064;2022-09-12T04:43:53;96573.72;;;7.42;100.00
34328;BME280;20588;48.840;10.064;2022-09-12T04:46:19;96573.31;;;7.38;100.00
34328;BME280;20588;48.840;10.064;2022-09-12T04:48:46;96567.78;;;7.34;100.00
34328;BME280;20588;48.840;10.064;2022-09-12T04:51:18;96572.91;;;7.34;100.00
34328;BME280;20588;48.840;10.064;2022-09-12T04:53:49;96575.28;;;7.36;100.00
34328;BME280;20588;48.840;10.064;2022-09-12T04:56:16;96575.09;;;7.38;100.00
34328;BME280;20588;48.840;10.064;2022-09-12T04:58:42;96567.81;;;7.41;100.00
34328;BME280;20588;48.840;10.064;2022-09-12T05:01:10;96570.59;;;7.46;100.00
34328;BME280;20588;48.840;10.064;2022-09-12T05:03:37;96565.66;;;7.45;100.00
34328;BME280;20588;48.840;10.064;2022-09-12T05:06:09;96569.78;;;7.46;100.00
34328;BME280;20588;48.840;10.064;2022-09-12T05:08:36;96567.84;;;7.48;100.00
34328;BME280;20588;48.840;10.064;2022-09-12T05:11:04;96575.34;;;7.49;100.00
34328;BME280;20588;48.840;10.064;2022-09-12T05:13:32;96573.97;;;7.53;100.00
34328;BME280;20588;48.840;10.064;2022-09-12T05:16:01;96573.59;;;7.56;100.00
34328;BME280;20588;48.840;10.064;2022-09-12T05:18:28;96575.59;;;7.61;100.00
34328;BME280;20588;48.840;10.064;2022-09-12T05:20:56;96571.50;;;7.66;100.00
34328;BME280;20588;48.840;10.064;2022-09-12T05:23:24;96572.50;;;7.72;100.00
34328;BME280;20588;48.840;10.064;2022-09-12T05:25:54;96562.28;;;7.78;100.00
34328;BME280;20588;48.840;10.064;2022-09-12T05:28:21;96569.22;;;7.84;100.00
34328;BME280;20588;48.840;10.064;2022-09-12T05:30:47;96578.50;;;7.92;100.00
34328;BME280;20588;48.840;10.064;2022-09-12T05:33:16;96571.00;;;7.97;100.00
34328;BME280;20588;48.840;10.064;2022-09-12T05:35:50;96580.28;;;8.04;100.00
34328;BME280;20588;48.840;10.064;2022-09-12T05:38:17;96576.78;;;8.12;100.00
34328;BME280;20588;48.840;10.064;2022-09-12T05:40:43;96577.66;;;8.25;100.00
34328;BME280;20588;48.840;10.064;2022-09-12T05:43:09;96579.25;;;8.39;100.00
34328;BME280;20588;48.840;10.064;2022-09-12T05:45:37;96583.81;;;8.57;100.00
34328;BME280;20588;48.840;10.064;2022-09-12T05:48:03;96579.88;;;8.87;100.00
34328;BME280;20588;48.840;10.064;2022-09-12T05:50:30;96575.91;;;9.30;100.00
34328;BME280;20588;48.840;10.064;2022-09-12T05:52:59;96577.66;;;9.49;100.00
34328;BME280;20588;48.840;10.064;2022-09-12T05:55:25;96581.38;;;9.60;100.00
34328;BME280;20588;48.840;10.064;2022-09-12T05:57:51;96575.44;;;9.66;100.00
34328;BME280;20588;48.840;10.064;2022-09-12T06:00:19;96578.75;;;9.73;100.00
34328;BME280;20588;48.840;10.064;2022-09-12T06:02:51;96582.84;;;9.93;100.00
34328;BME280;20588;48.840;10.064;2022-09-12T06:05:18;96587.13;;;10.19;100.00
34328;BME280;20588;48.840;10.064;2022-09-12T06:07:47;96583.69;;;10.31;100.00
34328;BME280;20588;48.840;10.064;2022-09-12T06:10:13;96589.56;;;10.45;100.00
34328;BME280;20588;48.840;10.064;2022-09-12T06:12:40;96576.91;;;10.68;100.00
34328;BME280;20588;48.840;10.064;2022-09-12T06:15:07;96581.50;;;10.90;100.00
34328;BME280;20588;48.840;10.064;2022-09-12T06:17:33;96585.66;;;11.16;100.00
34328;BME280;20588;48.840;10.064;2022-09-12T06:19:59;96580.78;;;11.51;100.00
34328;BME280;20588;48.840;10.064;2022-09-12T06:22:25;96583.84;;;12.13;100.00
34328;BME280;20588;48.840;10.064;2022-09-12T06:24:51;96574.59;;;13.18;100.00
34328;BME280;20588;48.840;10.064;2022-09-12T06:27:18;96573.41;;;14.95;100.00
34328;BME280;20588;48.840;10.064;2022-09-12T06:29:44;96567.66;;;17.97;99.34
34328;BME280;20588;48.840;10.064;2022-09-12T06:32:10;96564.44;;;21.13;80.28
34328;BME280;20588;48.840;10.064;2022-09-12T06:34:37;96563.94;;;23.67;65.43
34328;BME280;20588;48.840;10.064;2022-09-12T06:37:03;96560.47;;;25.97;53.58
34328;BME280;20588;48.840;10.064;2022-09-12T06:39:29;96553.00;;;27.70;46.08
34328;BME280;20588;48.840;10.064;2022-09-12T06:41:56;96559.63;;;29.37;41.48
34328;BME280;20588;48.840;10.064;2022-09-12T06:44:22;96548.44;;;30.76;37.60
34328;BME280;20588;48.840;10.064;2022-09-12T06:46:49;96539.94;;;31.72;35.29
34328;BME280;20588;48.840;10.064;2022-09-12T06:49:15;96554.44;;;32.56;33.80
34328;BME280;20588;48.840;10.064;2022-09-12T06:51:42;96541.94;;;33.59;33.18
34328;BME280;20588;48.840;10.064;2022-09-12T06:54:12;96543.59;;;34.41;31.74
34328;BME280;20588;48.840;10.064;2022-09-12T06:56:38;96536.78;;;34.77;31.01
34328;BME280;20588;48.840;10.064;2022-09-12T06:59:04;96548.31;;;35.51;30.07
34328;BME280;20588;48.840;10.064;2022-09-12T07:01:31;96540.03;;;36.20;29.78
34328;BME280;20588;48.840;10.064;2022-09-12T07:04:00;96534.91;;;36.63;28.77
34328;BME280;20588;48.840;10.064;2022-09-12T07:06:29;96532.03;;;37.06;28.41
34328;BME280;20588;48.840;10.064;2022-09-12T07:08:59;96537.13;;;37.78;28.04
34328;BME280;20588;48.840;10.064;2022-09-12T07:11:31;96530.16;;;38.30;27.18
34328;BME280;20588;48.840;10.064;2022-09-12T07:13:59;96531.94;;;38.75;27.23
34328;BME280;20588;48.840;10.064;2022-09-12T07:16:26;96564.13;;;39.13;26.64
34328;BME280;20588;48.840;10.064;2022-09-12T07:18:54;96525.00;;;38.81;26.86
34328;BME280;20588;48.840;10.064;2022-09-12T07:21:21;96529.09;;;39.17;26.30
34328;BME280;20588;48.840;10.064;2022-09-12T07:23:48;96525.63;;;39.13;26.98
34328;BME280;20588;48.840;10.064;2022-09-12T07:26:15;96527.69;;;39.53;26.63
34328;BME280;20588;48.840;10.064;2022-09-12T07:28:41;96529.38;;;39.84;25.72
34328;BME280;20588;48.840;10.064;2022-09-12T07:31:15;96528.22;;;39.82;26.20
34328;BME280;20588;48.840;10.064;2022-09-12T07:33:43;96528.25;;;40.19;26.00
34328;BME280;20588;48.840;10.064;2022-09-12T07:36:14;96526.25;;;40.67;25.55
34328;BME280;20588;48.840;10.064;2022-09-12T07:38:41;96527.78;;;40.68;25.92
34328;BME280;20588;48.840;10.064;2022-09-12T07:41:22;96536.69;;;40.95;24.88
34328;BME280;20588;48.840;10.064;2022-09-12T07:43:55;96532.91;;;40.89;25.23
34328;BME280;20588;48.840;10.064;2022-09-12T07:46:22;96530.03;;;41.30;25.58
34328;BME280;20588;48.840;10.064;2022-09-12T07:48:53;96526.53;;;41.59;25.09
34328;BME280;20588;48.840;10.064;2022-09-12T07:51:21;96531.84;;;41.86;24.50
34328;BME280;20588;48.840;10.064;2022-09-12T07:53:47;96526.44;;;42.32;24.84
34328;BME280;20588;48.840;10.064;2022-09-12T07:56:17;96523.09;;;41.78;25.25
34328;BME280;20588;48.840;10.064;2022-09-12T07:58:45;96524.16;;;42.30;24.10
34328;BME280;20588;48.840;10.064;2022-09-12T08:01:17;96519.97;;;42.26;23.69
34328;BME280;20588;48.840;10.064;2022-09-12T08:03:45;96526.03;;;42.33;24.07
34328;BME280;20588;48.840;10.064;2022-09-12T08:06:17;96527.69;;;42.66;24.20
34328;BME280;20588;48.840;10.064;2022-09-12T08:08:49;96527.09;;;42.95;22.90
34328;BME280;20588;48.840;10.064;2022-09-12T08:11:18;96520.69;;;42.07;24.36
34328;BME280;20588;48.840;10.064;2022-09-12T08:13:44;96528.03;;;41.83;23.08
34328;BME280;20588;48.840;10.064;2022-09-12T08:16:16;96526.25;;;40.63;23.81
34328;BME280;20588;48.840;10.064;2022-09-12T08:18:43;96516.28;;;39.31;24.31
34328;BME280;20588;48.840;10.064;2022-09-12T08:21:16;96532.72;;;39.47;24.81
34328;BME280;20588;48.840;10.064;2022-09-12T08:23:42;96524.91;;;39.05;25.59
34328;BME280;20588;48.840;10.064;2022-09-12T08:26:10;96535.13;;;39.35;25.81
34328;BME280;20588;48.840;10.064;2022-09-12T08:28:36;96531.28;;;39.87;26.01
34328;BME280;20588;48.840;10.064;2022-09-12T08:31:16;96537.09;;;39.27;24.58
34328;BME280;20588;48.840;10.064;2022-09-12T08:33:42;96534.81;;;38.05;26.35
34328;BME280;20588;48.840;10.064;2022-09-12T08:36:20;96535.34;;;36.68;26.74
34328;BME280;20588;48.840;10.064;2022-09-12T08:38:48;96530.97;;;35.81;27.67
34328;BME280;20588;48.840;10.064;2022-09-12T08:52:15;96520.53;;;27.52;39.86
34328;BME280;20588;48.840;10.064;2022-09-12T08:54:44;96523.50;;;27.51;41.28
34328;BME280;20588;48.840;10.064;2022-09-12T08:57:11;96517.28;;;26.67;41.40
34328;BME280;20588;48.840;10.064;2022-09-12T08:59:41;96524.72;;;26.48;42.70
34328;BME280;20588;48.840;10.064;2022-09-12T09:02:31;96520.31;;;27.11;41.99
34328;BME280;20588;48.840;10.064;2022-09-12T09:05:30;96512.75;;;26.84;42.21
34328;BME280;20588;48.840;10.064;2022-09-12T09:16:26;96511.31;;;28.66;39.99
34328;BME280;20588;48.840;10.064;2022-09-12T09:19:00;96516.38;;;28.09;38.67
34328;BME280;20588;48.840;10.064;2022-09-12T09:21:50;96512.56;;;27.61;39.62
34328;BME280;20588;48.840;10.064;2022-09-12T09:24:23;96511.06;;;27.80;39.46
34328;BME280;20588;48.840;10.064;2022-09-12T09:26:58;96519.53;;;27.19;40.41
34328;BME280;20588;48.840;10.064;2022-09-12T09:29:39;96513.22;;;26.69;41.77
34328;BME280;20588;48.840;10.064;2022-09-12T09:32:28;96507.72;;;27.08;41.93
34328;BME280;20588;48.840;10.064;2022-09-12T09:34:56;96505.72;;;27.60;41.29
34328;BME280;20588;48.840;10.064;2022-09-12T09:37:35;96509.09;;;28.27;39.93
34328;BME280;20588;48.840;10.064;2022-09-12T09:43:02;96502.09;;;29.05;39.48
34328;BME280;20588;48.840;10.064;2022-09-12T09:45:31;96494.16;;;29.17;38.84
34328;BME280;20588;48.840;10.064;2022-09-12T09:48:06;96500.06;;;29.95;37.34
34328;BME280;20588;48.840;10.064;2022-09-12T09:50:38;96495.19;;;30.60;35.76
34328;BME280;20588;48.840;10.064;2022-09-12T09:53:11;96490.75;;;30.92;36.53
34328;BME280;20588;48.840;10.064;2022-09-12T09:55:44;96495.50;;;30.59;36.02
34328;BME280;20588;48.840;10.064;2022-09-12T09:58:10;96497.94;;;30.64;36.42
34328;BME280;20588;48.840;10.064;2022-09-12T10:00:38;96491.69;;;30.72;35.76
34328;BME280;20588;48.840;10.064;2022-09-12T10:05:52;96493.75;;;30.51;35.63
34328;BME280;20588;48.840;10.064;2022-09-12T10:08:30;96491.00;;;29.35;37.80
34328;BME280;20588;48.840;10.064;2022-09-12T10:13:42;96488.75;;;30.34;36.22
34328;BME280;20588;48.840;10.064;2022-09-12T10:16:20;96489.81;;;31.00;34.96
34328;BME280;20588;48.840;10.064;2022-09-12T10:18:48;96495.31;;;31.07;35.32
34328;BME280;20588;48.840;10.064;2022-09-12T10:21:32;96487.91;;;29.57;37.04
34328;BME280;20588;48.840;10.064;2022-09-12T10:24:24;96492.31;;;29.41;38.63
34328;BME280;20588;48.840;10.064;2022-09-12T10:29:33;96477.59;;;30.56;36.29
34328;BME280;20588;48.840;10.064;2022-09-12T10:32:03;96486.75;;;30.58;36.72
34328;BME280;20588;48.840;10.064;2022-09-12T10:34:36;96486.03;;;30.85;36.68
34328;BME280;20588;48.840;10.064;2022-09-12T10:37:21;96484.13;;;31.29;34.03
34328;BME280;20588;48.840;10.064;2022-09-12T10:39:58;96487.53;;;31.14;34.83
34328;BME280;20588;48.840;10.064;2022-09-12T10:45:28;96480.72;;;30.73;33.88
34328;BME280;20588;48.840;10.064;2022-09-12T10:47:59;96480.38;;;31.02;35.98
34328;BME280;20588;48.840;10.064;2022-09-12T10:52:56;96492.53;;;31.78;34.96
34328;BME280;20588;48.840;10.064;2022-09-12T10:55:37;96486.31;;;31.74;33.77
34328;BME280;20588;48.840;10.064;2022-09-12T10:58:35;96477.78;;;30.90;35.58
34328;BME280;20588;48.840;10.064;2022-09-12T11:01:19;96483.34;;;31.28;34.55
34328;BME280;20588;48.840;10.064;2022-09-12T11:04:08;96472.25;;;31.26;34.58
34328;BME280;20588;48.840;10.064;2022-09-12T11:09:34;96478.50;;;32.31;33.48
34328;BME280;20588;48.840;10.064;2022-09-12T11:18:31;96473.44;;;32.45;32.05
34328;BME280;20588;48.840;10.064;2022-09-12T11:21:08;96467.88;;;31.34;32.76
34328;BME280;20588;48.840;10.064;2022-09-12T11:26:47;96466.06;;;31.69;33.34
34328;BME280;20588;48.840;10.064;2022-09-12T11:29:37;96459.19;;;31.68;32.78
34328;BME280;20588;48.840;10.064;2022-09-12T11:32:33;96455.09;;;32.05;32.42
34328;BME280;20588;48.840;10.064;2022-09-12T11:45:53;96449.81;;;31.74;33.45
34328;BME280;20588;48.840;10.064;2022-09-12T11:48:41;96448.47;;;31.49;31.88
34328;BME280;20588;48.840;10.064;2022-09-12T11:51:22;96445.63;;;31.26;32.52
34328;BME280;20588;48.840;10.064;2022-09-12T11:56:46;96442.75;;;30.73;34.00
34328;BME280;20588;48.840;10.064;2022-09-12T11:59:33;96439.56;;;30.40;34.47
34328;BME280;20588;48.840;10.064;2022-09-12T12:02:01;96435.56;;;30.46;34.42
34328;BME280;20588;48.840;10.064;2022-09-12T12:04:39;96434.63;;;30.54;35.06
34328;BME280;20588;48.840;10.064;2022-09-12T12:07:09;96425.72;;;31.05;33.08
34328;BME280;20588;48.840;10.064;2022-09-12T12:09:43;96425.41;;;31.37;32.02
34328;BME280;20588;48.840;10.064;2022-09-12T12:12:18;96426.66;;;31.28;31.59
34328;BME280;20588;48.840;10.064;2022-09-12T12:14:48;96432.50;;;31.18;31.26
34328;BME280;20588;48.840;10.064;2022-09-12T12:17:25;96430.38;;;31.39;30.37
34328;BME280;20588;48.840;10.064;2022-09-12T12:20:03;96419.25;;;30.75;31.28
34328;BME280;20588;48.840;10.064;2022-09-12T12:22:30;96421.91;;;30.75;32.63
34328;BME280;20588;48.840;10.064;2022-09-12T12:25:21;96418.75;;;30.85;32.15
34328;BME280;20588;48.840;10.064;2022-09-12T12:27:53;96415.78;;;30.59;31.70
34328;BME280;20588;48.840;10.064;2022-09-12T12:35:39;96396.72;;;28.81;33.71
34328;BME280;20588;48.840;10.064;2022-09-12T12:38:35;96401.16;;;28.77;34.29
34328;BME280;20588;48.840;10.064;2022-09-12T12:41:42;96388.13;;;28.84;35.02
34328;BME280;20588;48.840;10.064;2022-09-12T12:49:41;96388.91;;;28.52;34.23
34328;BME280;20588;48.840;10.064;2022-09-12T12:52:15;96392.88;;;27.84;34.48
34328;BME280;20588;48.840;10.064;2022-09-12T12:59:57;96390.19;;;28.13;33.56
34328;BME280;20588;48.840;10.064;2022-09-12T13:02:33;96382.44;;;28.29;34.19
34328;BME280;20588;48.840;10.064;2022-09-12T13:05:05;96384.41;;;28.53;33.27
34328;BME280;20588;48.840;10.064;2022-09-12T13:07:37;96383.75;;;29.12;33.39
34328;BME280;20588;48.840;10.064;2022-09-12T13:10:06;96386.09;;;29.14;33.51
34328;BME280;20588;48.840;10.064;2022-09-12T13:12:44;96383.25;;;28.86;34.31
34328;BME280;20588;48.840;10.064;2022-09-12T13:15:47;96372.41;;;28.35;34.70
34328;BME280;20588;48.840;10.064;2022-09-12T13:18:27;96370.47;;;28.11;34.45
34328;BME280;20588;48.840;10.064;2022-09-12T13:21:15;96376.25;;;28.37;34.85
34328;BME280;20588;48.840;10.064;2022-09-12T13:23:43;96378.84;;;28.46;33.87
34328;BME280;20588;48.840;10.064;2022-09-12T13:26:12;96371.94;;;28.53;33.52
34328;BME280;20588;48.840;10.064;2022-09-12T13:28:39;96367.13;;;28.67;33.16
34328;BME280;20588;48.840;10.064;2022-09-12T13:31:23;96363.91;;;28.29;32.84
34328;BME280;20588;48.840;10.064;2022-09-12T13:33:55;96370.19;;;28.57;33.83
34328;BME280;20588;48.840;10.064;2022-09-12T13:37:03;96351.88;;;27.99;34.76
34328;BME280;20588;48.840;10.064;2022-09-12T13:47:38;96357.44;;;28.18;34.64
34328;BME280;20588;48.840;10.064;2022-09-12T13:50:07;96352.66;;;28.32;34.97
34328;BME280;20588;48.840;10.064;2022-09-12T13:52:39;96351.66;;;28.04;34.37
34328;BME280;20588;48.840;10.064;2022-09-12T13:55:09;96357.78;;;27.75;35.54
34328;BME280;20588;48.840;10.064;2022-09-12T13:57:40;96357.59;;;27.80;37.30
34328;BME280;20588;48.840;10.064;2022-09-12T14:00:18;96362.03;;;27.68;35.46
34328;BME280;20588;48.840;10.064;2022-09-12T14:02:45;96344.06;;;27.03;35.79
34328;BME280;20588;48.840;10.064;2022-09-12T14:05:23;96349.03;;;26.96;36.88
34328;BME280;20588;48.840;10.064;2022-09-12T14:08:01;96345.25;;;26.77;37.17
34328;BME280;20588;48.840;10.064;2022-09-12T14:10:32;96335.66;;;26.64;37.81
34328;BME280;20588;48.840;10.064;2022-09-12T14:13:01;96334.41;;;26.70;36.76
34328;BME280;20588;48.840;10.064;2022-09-12T14:15:34;96327.78;;;26.29;37.81
34328;BME280;20588;48.840;10.064;2022-09-12T14:18:03;96329.25;;;26.01;39.00
34328;BME280;20588;48.840;10.064;2022-09-12T14:20:31;96326.44;;;26.15;37.42
34328;BME280;20588;48.840;10.064;2022-09-12T14:23:28;96323.66;;;26.20;38.13
34328;BME280;20588;48.840;10.064;2022-09-12T14:25:56;96319.31;;;26.15;38.38
34328;BME280;20588;48.840;10.064;2022-09-12T14:28:24;96319.63;;;25.71;39.82
34328;BME280;20588;48.840;10.064;2022-09-12T14:33:27;96312.97;;;26.08;39.73
34328;BME280;20588;48.840;10.064;2022-09-12T14:36:15;96314.34;;;25.71;39.39
34328;BME280;20588;48.840;10.064;2022-09-12T14:38:45;96309.06;;;25.71;39.11
34328;BME280;20588;48.840;10.064;2022-09-12T14:41:19;96309.38;;;25.44;39.07
34328;BME280;20588;48.840;10.064;2022-09-12T14:43:51;96303.41;;;25.13;38.73
34328;BME280;20588;48.840;10.064;2022-09-12T14:46:23;96297.63;;;24.94;39.61
34328;BME280;20588;48.840;10.064;2022-09-12T14:49:07;96294.25;;;25.11;40.30
34328;BME280;20588;48.840;10.064;2022-09-12T14:51:38;96301.13;;;25.37;39.27
34328;BME280;20588;48.840;10.064;2022-09-12T14:54:21;96293.88;;;25.43;39.59
34328;BME280;20588;48.840;10.064;2022-09-12T14:56:56;96294.81;;;25.38;39.21
34328;BME280;20588;48.840;10.064;2022-09-12T14:59:38;96292.31;;;25.33;41.05
34328;BME280;20588;48.840;10.064;2022-09-12T15:04:49;96291.97;;;25.26;38.50
34328;BME280;20588;48.840;10.064;2022-09-12T15:07:28;96283.91;;;25.14;39.85
34328;BME280;20588;48.840;10.064;2022-09-12T15:09:57;96294.13;;;25.24;40.02
34328;BME280;20588;48.840;10.064;2022-09-12T15:12:24;96291.50;;;25.24;38.92
34328;BME280;20588;48.840;10.064;2022-09-12T15:14:50;96289.13;;;24.97;39.24
34328;BME280;20588;48.840;10.064;2022-09-12T15:17:16;96291.41;;;24.90;40.12
34328;BME280;20588;48.840;10.064;2022-09-12T15:19:42;96293.34;;;25.07;38.60
34328;BME280;20588;48.840;10.064;2022-09-12T15:22:14;96295.50;;;25.05;37.10
34328;BME280;20588;48.840;10.064;2022-09-12T15:24:40;96295.78;;;25.03;36.04
34328;BME280;20588;48.840;10.064;2022-09-12T15:27:11;96291.13;;;25.00;36.44
34328;BME280;20588;48.840;10.064;2022-09-12T15:29:37;96289.59;;;25.16;37.24
34328;BME280;20588;48.840;10.064;2022-09-12T15:32:04;96296.09;;;25.10;36.96